Terminal Aerodrome Forecast
Issued by NWS Wilmington, NC

Home | Current Version | Previous Version | Text Only | Print | Product List | Glossary On
Versions: 1 2 3 4 5 6 7 8 9 10 11 12 13 14 15 16
449
FTUS42 KILM 241606 AAB
TAFMYR
TAF AMD
KMYR 241606Z 2416/2512 14013G21KT P6SM VCSH OVC025
      TEMPO 2418/2421 2SM +TSRA OVC004CB
     FM242100 12012G20KT 2SM +SHRA OVC007
     FM250400 16010G15KT 3SM SHRA BKN010
     FM250800 21010KT 4SM -SHRA BKN015
      TEMPO 2508/2512 P6SM BKN025=

USA.gov is the U.S. government's official web portal to all federal, state and local government web resources and services.